sensor_id;sensor_type;location;lat;lon;timestamp;P1;durP1;ratioP1;P2;durP2;ratioP2
21030;SDS011;61072;47.808;7.636;2023-06-14T00:00:14;7.00;;;2.97;;
21030;SDS011;61072;47.808;7.636;2023-06-14T00:02:42;3.33;;;2.85;;
21030;SDS011;61072;47.808;7.636;2023-06-14T00:05:08;7.05;;;2.75;;
21030;SDS011;61072;47.808;7.636;2023-06-14T00:07:38;3.80;;;2.83;;
21030;SDS011;61072;47.808;7.636;2023-06-14T00:10:10;3.55;;;2.60;;
21030;SDS011;61072;47.808;7.636;2023-06-14T00:12:38;6.18;;;2.97;;
21030;SDS011;61072;47.808;7.636;2023-06-14T00:15:05;7.07;;;3.10;;
21030;SDS011;61072;47.808;7.636;2023-06-14T00:17:33;5.85;;;3.75;;
21030;SDS011;61072;47.808;7.636;2023-06-14T00:20:01;5.35;;;3.03;;
21030;SDS011;61072;47.808;7.636;2023-06-14T00:22:31;4.70;;;2.58;;
21030;SDS011;61072;47.808;7.636;2023-06-14T00:24:59;4.95;;;3.25;;
21030;SDS011;61072;47.808;7.636;2023-06-14T00:27:40;4.47;;;2.53;;
21030;SDS011;61072;47.808;7.636;2023-06-14T00:30:07;3.40;;;3.00;;
21030;SDS011;61072;47.808;7.636;2023-06-14T00:32:34;3.35;;;2.67;;
21030;SDS011;61072;47.808;7.636;2023-06-14T00:35:01;6.80;;;2.50;;
21030;SDS011;61072;47.808;7.636;2023-06-14T00:37:28;4.68;;;2.92;;
21030;SDS011;61072;47.808;7.636;2023-06-14T00:39:55;4.57;;;2.85;;
21030;SDS011;61072;47.808;7.636;2023-06-14T00:42:25;3.03;;;2.42;;
21030;SDS011;61072;47.808;7.636;2023-06-14T00:44:53;4.80;;;2.85;;
21030;SDS011;61072;47.808;7.636;2023-06-14T00:47:21;3.33;;;2.40;;
21030;SDS011;61072;47.808;7.636;2023-06-14T00:49:49;7.75;;;3.10;;
21030;SDS011;61072;47.808;7.636;2023-06-14T00:52:17;4.18;;;2.80;;
21030;SDS011;61072;47.808;7.636;2023-06-14T00:54:44;7.50;;;2.65;;
21030;SDS011;61072;47.808;7.636;2023-06-14T00:57:12;4.13;;;2.55;;
21030;SDS011;61072;47.808;7.636;2023-06-14T00:59:47;3.72;;;2.90;;
21030;SDS011;61072;47.808;7.636;2023-06-14T01:02:14;4.18;;;2.55;;
21030;SDS011;61072;47.808;7.636;2023-06-14T01:04:43;4.22;;;2.63;;
21030;SDS011;61072;47.808;7.636;2023-06-14T01:07:25;2.92;;;2.40;;
21030;SDS011;61072;47.808;7.636;2023-06-14T01:12:39;4.90;;;2.85;;
21030;SDS011;61072;47.808;7.636;2023-06-14T01:15:12;5.60;;;2.63;;
21030;SDS011;61072;47.808;7.636;2023-06-14T01:17:39;3.63;;;2.40;;
21030;SDS011;61072;47.808;7.636;2023-06-14T01:20:10;5.90;;;2.10;;
21030;SDS011;61072;47.808;7.636;2023-06-14T01:22:48;5.78;;;2.78;;
21030;SDS011;61072;47.808;7.636;2023-06-14T01:25:21;4.35;;;2.70;;
21030;SDS011;61072;47.808;7.636;2023-06-14T01:30:21;5.50;;;2.70;;
21030;SDS011;61072;47.808;7.636;2023-06-14T01:32:51;2.30;;;2.03;;
21030;SDS011;61072;47.808;7.636;2023-06-14T01:35:20;3.17;;;2.47;;
21030;SDS011;61072;47.808;7.636;2023-06-14T01:37:48;4.63;;;2.60;;
21030;SDS011;61072;47.808;7.636;2023-06-14T01:40:15;3.70;;;2.80;;
21030;SDS011;61072;47.808;7.636;2023-06-14T01:42:43;4.53;;;2.22;;
21030;SDS011;61072;47.808;7.636;2023-06-14T01:45:12;4.57;;;2.50;;
21030;SDS011;61072;47.808;7.636;2023-06-14T01:47:41;4.80;;;2.45;;
21030;SDS011;61072;47.808;7.636;2023-06-14T01:50:08;3.63;;;2.72;;
21030;SDS011;61072;47.808;7.636;2023-06-14T01:52:36;4.25;;;2.90;;
21030;SDS011;61072;47.808;7.636;2023-06-14T01:55:04;6.60;;;3.00;;
21030;SDS011;61072;47.808;7.636;2023-06-14T01:57:31;5.80;;;2.42;;
21030;SDS011;61072;47.808;7.636;2023-06-14T01:59:58;3.17;;;2.50;;
21030;SDS011;61072;47.808;7.636;2023-06-14T02:02:25;4.15;;;2.70;;
21030;SDS011;61072;47.808;7.636;2023-06-14T02:04:52;3.28;;;2.53;;
21030;SDS011;61072;47.808;7.636;2023-06-14T02:07:18;4.90;;;3.00;;
21030;SDS011;61072;47.808;7.636;2023-06-14T02:09:45;4.60;;;2.70;;
21030;SDS011;61072;47.808;7.636;2023-06-14T02:12:12;2.97;;;2.25;;
21030;SDS011;61072;47.808;7.636;2023-06-14T02:14:39;3.30;;;2.60;;
21030;SDS011;61072;47.808;7.636;2023-06-14T02:17:05;3.28;;;2.40;;
21030;SDS011;61072;47.808;7.636;2023-06-14T02:19:32;4.50;;;2.72;;
21030;SDS011;61072;47.808;7.636;2023-06-14T02:21:59;6.72;;;2.75;;
21030;SDS011;61072;47.808;7.636;2023-06-14T02:24:26;7.50;;;2.83;;
21030;SDS011;61072;47.808;7.636;2023-06-14T02:26:53;5.78;;;2.97;;
21030;SDS011;61072;47.808;7.636;2023-06-14T02:29:20;3.45;;;2.45;;
21030;SDS011;61072;47.808;7.636;2023-06-14T02:31:47;5.18;;;2.30;;
21030;SDS011;61072;47.808;7.636;2023-06-14T02:34:15;4.80;;;2.83;;
21030;SDS011;61072;47.808;7.636;2023-06-14T02:36:43;2.97;;;2.30;;
21030;SDS011;61072;47.808;7.636;2023-06-14T02:39:10;6.60;;;2.72;;
21030;SDS011;61072;47.808;7.636;2023-06-14T02:41:37;6.90;;;2.60;;
21030;SDS011;61072;47.808;7.636;2023-06-14T02:44:04;5.53;;;2.80;;
21030;SDS011;61072;47.808;7.636;2023-06-14T02:46:32;5.05;;;2.40;;
21030;SDS011;61072;47.808;7.636;2023-06-14T02:48:59;5.68;;;2.95;;
21030;SDS011;61072;47.808;7.636;2023-06-14T02:51:26;7.57;;;3.10;;
21030;SDS011;61072;47.808;7.636;2023-06-14T02:53:53;3.67;;;3.00;;
21030;SDS011;61072;47.808;7.636;2023-06-14T02:56:19;4.47;;;2.78;;
21030;SDS011;61072;47.808;7.636;2023-06-14T02:58:46;3.75;;;2.65;;
21030;SDS011;61072;47.808;7.636;2023-06-14T03:01:15;3.97;;;2.55;;
21030;SDS011;61072;47.808;7.636;2023-06-14T03:03:43;3.72;;;2.63;;
21030;SDS011;61072;47.808;7.636;2023-06-14T03:06:10;3.25;;;2.50;;
21030;SDS011;61072;47.808;7.636;2023-06-14T03:08:39;3.38;;;2.58;;
21030;SDS011;61072;47.808;7.636;2023-06-14T03:11:07;4.10;;;2.53;;
21030;SDS011;61072;47.808;7.636;2023-06-14T03:13:37;6.40;;;2.43;;
21030;SDS011;61072;47.808;7.636;2023-06-14T03:16:05;2.90;;;2.17;;
21030;SDS011;61072;47.808;7.636;2023-06-14T03:18:33;3.40;;;2.42;;
21030;SDS011;61072;47.808;7.636;2023-06-14T03:21:02;3.15;;;2.47;;
21030;SDS011;61072;47.808;7.636;2023-06-14T03:23:29;4.45;;;2.67;;
21030;SDS011;61072;47.808;7.636;2023-06-14T03:25:56;5.50;;;2.80;;
21030;SDS011;61072;47.808;7.636;2023-06-14T03:28:23;5.00;;;2.50;;
21030;SDS011;61072;47.808;7.636;2023-06-14T03:30:49;4.80;;;2.60;;
21030;SDS011;61072;47.808;7.636;2023-06-14T03:33:16;4.93;;;2.60;;
21030;SDS011;61072;47.808;7.636;2023-06-14T03:35:43;5.55;;;2.88;;
21030;SDS011;61072;47.808;7.636;2023-06-14T03:38:10;5.28;;;2.80;;
21030;SDS011;61072;47.808;7.636;2023-06-14T03:40:37;5.05;;;2.65;;
21030;SDS011;61072;47.808;7.636;2023-06-14T03:43:04;4.85;;;2.40;;
21030;SDS011;61072;47.808;7.636;2023-06-14T03:45:31;3.95;;;2.40;;
21030;SDS011;61072;47.808;7.636;2023-06-14T03:47:57;4.50;;;2.33;;
21030;SDS011;61072;47.808;7.636;2023-06-14T03:50:27;2.93;;;2.23;;
21030;SDS011;61072;47.808;7.636;2023-06-14T03:52:54;5.95;;;2.63;;
21030;SDS011;61072;47.808;7.636;2023-06-14T03:55:21;5.50;;;2.70;;
21030;SDS011;61072;47.808;7.636;2023-06-14T03:58:11;6.25;;;2.75;;
21030;SDS011;61072;47.808;7.636;2023-06-14T04:00:39;4.18;;;2.30;;
21030;SDS011;61072;47.808;7.636;2023-06-14T04:03:06;5.38;;;3.13;;
21030;SDS011;61072;47.808;7.636;2023-06-14T04:05:33;3.67;;;2.45;;
21030;SDS011;61072;47.808;7.636;2023-06-14T04:08:00;3.63;;;2.75;;
21030;SDS011;61072;47.808;7.636;2023-06-14T04:10:27;5.13;;;2.97;;
21030;SDS011;61072;47.808;7.636;2023-06-14T04:12:54;6.88;;;2.90;;
21030;SDS011;61072;47.808;7.636;2023-06-14T04:15:21;4.68;;;2.65;;
21030;SDS011;61072;47.808;7.636;2023-06-14T04:17:48;6.53;;;3.05;;
21030;SDS011;61072;47.808;7.636;2023-06-14T04:20:15;4.43;;;2.97;;
21030;SDS011;61072;47.808;7.636;2023-06-14T04:22:43;3.53;;;2.55;;
21030;SDS011;61072;47.808;7.636;2023-06-14T04:25:09;4.97;;;2.65;;
21030;SDS011;61072;47.808;7.636;2023-06-14T04:27:38;3.35;;;2.60;;
21030;SDS011;61072;47.808;7.636;2023-06-14T04:30:05;4.22;;;2.53;;
21030;SDS011;61072;47.808;7.636;2023-06-14T04:32:32;3.83;;;2.78;;
21030;SDS011;61072;47.808;7.636;2023-06-14T04:35:06;6.55;;;2.78;;
21030;SDS011;61072;47.808;7.636;2023-06-14T04:37:33;6.38;;;2.90;;
21030;SDS011;61072;47.808;7.636;2023-06-14T04:40:00;4.43;;;2.97;;
21030;SDS011;61072;47.808;7.636;2023-06-14T04:42:29;3.67;;;2.80;;
21030;SDS011;61072;47.808;7.636;2023-06-14T04:44:57;6.43;;;2.55;;
21030;SDS011;61072;47.808;7.636;2023-06-14T04:47:24;5.18;;;2.85;;
21030;SDS011;61072;47.808;7.636;2023-06-14T04:49:56;4.18;;;2.80;;
21030;SDS011;61072;47.808;7.636;2023-06-14T04:52:23;3.78;;;2.35;;
21030;SDS011;61072;47.808;7.636;2023-06-14T04:54:52;6.47;;;2.88;;
21030;SDS011;61072;47.808;7.636;2023-06-14T04:57:20;4.30;;;3.00;;
21030;SDS011;61072;47.808;7.636;2023-06-14T04:59:48;5.13;;;2.83;;
21030;SDS011;61072;47.808;7.636;2023-06-14T05:02:24;6.53;;;3.00;;
21030;SDS011;61072;47.808;7.636;2023-06-14T05:04:52;9.02;;;2.78;;
21030;SDS011;61072;47.808;7.636;2023-06-14T05:07:20;7.90;;;3.03;;
21030;SDS011;61072;47.808;7.636;2023-06-14T05:09:50;4.18;;;2.50;;
21030;SDS011;61072;47.808;7.636;2023-06-14T05:12:16;9.60;;;3.28;;
21030;SDS011;61072;47.808;7.636;2023-06-14T05:14:45;4.93;;;3.00;;
21030;SDS011;61072;47.808;7.636;2023-06-14T05:17:11;4.97;;;2.65;;
21030;SDS011;61072;47.808;7.636;2023-06-14T05:19:38;9.57;;;2.85;;
21030;SDS011;61072;47.808;7.636;2023-06-14T05:22:06;7.88;;;3.10;;
21030;SDS011;61072;47.808;7.636;2023-06-14T05:24:32;4.57;;;2.90;;
21030;SDS011;61072;47.808;7.636;2023-06-14T05:27:00;6.22;;;3.33;;
21030;SDS011;61072;47.808;7.636;2023-06-14T05:29:27;4.30;;;3.35;;
21030;SDS011;61072;47.808;7.636;2023-06-14T05:31:56;8.07;;;3.88;;
21030;SDS011;61072;47.808;7.636;2023-06-14T05:34:23;9.82;;;4.28;;
21030;SDS011;61072;47.808;7.636;2023-06-14T05:36:50;10.95;;;5.18;;
21030;SDS011;61072;47.808;7.636;2023-06-14T05:39:16;7.15;;;4.47;;
21030;SDS011;61072;47.808;7.636;2023-06-14T05:41:43;8.13;;;4.63;;
21030;SDS011;61072;47.808;7.636;2023-06-14T05:44:10;6.88;;;4.32;;
21030;SDS011;61072;47.808;7.636;2023-06-14T05:46:39;10.40;;;5.15;;
21030;SDS011;61072;47.808;7.636;2023-06-14T05:49:06;10.82;;;4.45;;
21030;SDS011;61072;47.808;7.636;2023-06-14T05:51:33;15.13;;;4.55;;
21030;SDS011;61072;47.808;7.636;2023-06-14T05:54:01;11.32;;;4.85;;
21030;SDS011;61072;47.808;7.636;2023-06-14T05:56:27;8.57;;;4.82;;
21030;SDS011;61072;47.808;7.636;2023-06-14T05:58:54;8.57;;;4.75;;
21030;SDS011;61072;47.808;7.636;2023-06-14T06:01:21;9.85;;;4.57;;
21030;SDS011;61072;47.808;7.636;2023-06-14T06:03:48;10.85;;;4.57;;
21030;SDS011;61072;47.808;7.636;2023-06-14T06:06:15;8.82;;;4.32;;
21030;SDS011;61072;47.808;7.636;2023-06-14T06:08:42;7.80;;;4.18;;
21030;SDS011;61072;47.808;7.636;2023-06-14T06:11:09;9.70;;;4.60;;
21030;SDS011;61072;47.808;7.636;2023-06-14T06:13:36;6.53;;;4.10;;
21030;SDS011;61072;47.808;7.636;2023-06-14T06:16:05;8.05;;;4.22;;
21030;SDS011;61072;47.808;7.636;2023-06-14T06:18:32;12.65;;;4.15;;
21030;SDS011;61072;47.808;7.636;2023-06-14T06:20:58;12.52;;;4.30;;
21030;SDS011;61072;47.808;7.636;2023-06-14T06:23:25;11.23;;;4.18;;
21030;SDS011;61072;47.808;7.636;2023-06-14T06:25:52;7.63;;;3.95;;
21030;SDS011;61072;47.808;7.636;2023-06-14T06:28:19;6.32;;;4.15;;
21030;SDS011;61072;47.808;7.636;2023-06-14T06:30:46;4.63;;;3.72;;
21030;SDS011;61072;47.808;7.636;2023-06-14T06:33:13;7.72;;;4.30;;
21030;SDS011;61072;47.808;7.636;2023-06-14T06:35:40;8.52;;;4.10;;
21030;SDS011;61072;47.808;7.636;2023-06-14T06:38:07;11.07;;;4.45;;
21030;SDS011;61072;47.808;7.636;2023-06-14T06:40:36;7.10;;;3.97;;
21030;SDS011;61072;47.808;7.636;2023-06-14T06:43:03;9.13;;;4.00;;
21030;SDS011;61072;47.808;7.636;2023-06-14T06:45:30;8.93;;;4.53;;
21030;SDS011;61072;47.808;7.636;2023-06-14T06:47:56;6.90;;;4.22;;
21030;SDS011;61072;47.808;7.636;2023-06-14T06:50:23;15.55;;;4.40;;
21030;SDS011;61072;47.808;7.636;2023-06-14T06:52:51;11.45;;;4.10;;
21030;SDS011;61072;47.808;7.636;2023-06-14T06:55:18;8.63;;;4.38;;
21030;SDS011;61072;47.808;7.636;2023-06-14T06:57:46;8.70;;;4.50;;
21030;SDS011;61072;47.808;7.636;2023-06-14T07:00:13;7.57;;;4.28;;
21030;SDS011;61072;47.808;7.636;2023-06-14T07:02:41;12.15;;;4.40;;
21030;SDS011;61072;47.808;7.636;2023-06-14T07:05:08;8.88;;;4.68;;
21030;SDS011;61072;47.808;7.636;2023-06-14T07:07:35;6.88;;;4.32;;
21030;SDS011;61072;47.808;7.636;2023-06-14T07:10:02;7.25;;;4.32;;
21030;SDS011;61072;47.808;7.636;2023-06-14T07:12:31;10.15;;;3.88;;
21030;SDS011;61072;47.808;7.636;2023-06-14T07:15:00;10.18;;;4.05;;
21030;SDS011;61072;47.808;7.636;2023-06-14T07:17:27;6.65;;;3.83;;
21030;SDS011;61072;47.808;7.636;2023-06-14T07:19:54;10.85;;;4.10;;
21030;SDS011;61072;47.808;7.636;2023-06-14T07:22:20;10.20;;;3.85;;
21030;SDS011;61072;47.808;7.636;2023-06-14T07:24:47;13.75;;;4.55;;
21030;SDS011;61072;47.808;7.636;2023-06-14T07:27:14;12.80;;;3.85;;
21030;SDS011;61072;47.808;7.636;2023-06-14T07:29:41;7.30;;;3.88;;
21030;SDS011;61072;47.808;7.636;2023-06-14T07:32:07;9.30;;;3.78;;
21030;SDS011;61072;47.808;7.636;2023-06-14T07:34:34;10.52;;;3.35;;
21030;SDS011;61072;47.808;7.636;2023-06-14T07:37:01;5.13;;;3.25;;
21030;SDS011;61072;47.808;7.636;2023-06-14T07:39:28;6.35;;;3.42;;
21030;SDS011;61072;47.808;7.636;2023-06-14T07:41:55;7.88;;;3.10;;
21030;SDS011;61072;47.808;7.636;2023-06-14T07:44:22;9.65;;;3.55;;
21030;SDS011;61072;47.808;7.636;2023-06-14T07:46:49;10.55;;;3.67;;
21030;SDS011;61072;47.808;7.636;2023-06-14T07:49:16;6.65;;;3.90;;
21030;SDS011;61072;47.808;7.636;2023-06-14T07:51:42;4.10;;;3.15;;
21030;SDS011;61072;47.808;7.636;2023-06-14T07:54:11;7.63;;;3.65;;
21030;SDS011;61072;47.808;7.636;2023-06-14T07:56:37;5.22;;;3.83;;
21030;SDS011;61072;47.808;7.636;2023-06-14T07:59:04;7.63;;;3.15;;
21030;SDS011;61072;47.808;7.636;2023-06-14T08:01:32;6.95;;;4.15;;
21030;SDS011;61072;47.808;7.636;2023-06-14T08:03:59;6.40;;;3.97;;
21030;SDS011;61072;47.808;7.636;2023-06-14T08:06:26;7.30;;;4.10;;
21030;SDS011;61072;47.808;7.636;2023-06-14T08:08:53;14.63;;;4.00;;
21030;SDS011;61072;47.808;7.636;2023-06-14T08:11:20;7.22;;;3.60;;
21030;SDS011;61072;47.808;7.636;2023-06-14T08:13:47;6.90;;;3.72;;
21030;SDS011;61072;47.808;7.636;2023-06-14T08:16:13;7.57;;;4.20;;
21030;SDS011;61072;47.808;7.636;2023-06-14T08:18:40;7.40;;;3.50;;
21030;SDS011;61072;47.808;7.636;2023-06-14T08:21:07;10.88;;;3.55;;
21030;SDS011;61072;47.808;7.636;2023-06-14T08:23:34;6.75;;;3.95;;
21030;SDS011;61072;47.808;7.636;2023-06-14T08:26:02;8.05;;;4.15;;
21030;SDS011;61072;47.808;7.636;2023-06-14T08:28:30;5.10;;;3.10;;
21030;SDS011;61072;47.808;7.636;2023-06-14T08:30:57;8.55;;;3.65;;
21030;SDS011;61072;47.808;7.636;2023-06-14T08:33:23;5.82;;;3.20;;
21030;SDS011;61072;47.808;7.636;2023-06-14T08:35:50;6.28;;;3.67;;
21030;SDS011;61072;47.808;7.636;2023-06-14T08:38:17;6.50;;;3.83;;
21030;SDS011;61072;47.808;7.636;2023-06-14T08:40:44;10.00;;;3.88;;
21030;SDS011;61072;47.808;7.636;2023-06-14T08:43:14;8.23;;;3.05;;
21030;SDS011;61072;47.808;7.636;2023-06-14T08:45:41;6.78;;;3.45;;
21030;SDS011;61072;47.808;7.636;2023-06-14T08:48:08;9.77;;;3.67;;
21030;SDS011;61072;47.808;7.636;2023-06-14T08:50:35;9.48;;;3.70;;
21030;SDS011;61072;47.808;7.636;2023-06-14T08:53:06;8.55;;;3.22;;
21030;SDS011;61072;47.808;7.636;2023-06-14T08:58:09;4.53;;;3.28;;
21030;SDS011;61072;47.808;7.636;2023-06-14T09:00:40;7.15;;;3.38;;
21030;SDS011;61072;47.808;7.636;2023-06-14T09:03:09;8.43;;;3.85;;
21030;SDS011;61072;47.808;7.636;2023-06-14T09:05:40;9.77;;;3.85;;
21030;SDS011;61072;47.808;7.636;2023-06-14T09:08:07;7.38;;;3.97;;
21030;SDS011;61072;47.808;7.636;2023-06-14T09:10:34;5.90;;;3.30;;
21030;SDS011;61072;47.808;7.636;2023-06-14T09:13:04;4.22;;;3.08;;
21030;SDS011;61072;47.808;7.636;2023-06-14T09:15:30;7.85;;;3.15;;
21030;SDS011;61072;47.808;7.636;2023-06-14T09:17:58;8.95;;;3.95;;
21030;SDS011;61072;47.808;7.636;2023-06-14T09:20:29;5.65;;;3.45;;
21030;SDS011;61072;47.808;7.636;2023-06-14T09:22:56;6.18;;;3.17;;
21030;SDS011;61072;47.808;7.636;2023-06-14T09:25:24;5.43;;;3.33;;
21030;SDS011;61072;47.808;7.636;2023-06-14T09:28:08;3.60;;;2.95;;
21030;SDS011;61072;47.808;7.636;2023-06-14T09:30:36;5.50;;;3.25;;
21030;SDS011;61072;47.808;7.636;2023-06-14T09:33:06;4.55;;;3.00;;
21030;SDS011;61072;47.808;7.636;2023-06-14T09:35:33;9.20;;;3.40;;
21030;SDS011;61072;47.808;7.636;2023-06-14T09:38:00;3.92;;;2.95;;
21030;SDS011;61072;47.808;7.636;2023-06-14T09:40:27;3.90;;;2.92;;
21030;SDS011;61072;47.808;7.636;2023-06-14T09:42:54;7.20;;;3.38;;
21030;SDS011;61072;47.808;7.636;2023-06-14T09:45:24;3.63;;;3.20;;
21030;SDS011;61072;47.808;7.636;2023-06-14T09:47:55;7.60;;;3.42;;
21030;SDS011;61072;47.808;7.636;2023-06-14T09:50:33;7.93;;;2.67;;
21030;SDS011;61072;47.808;7.636;2023-06-14T09:53:07;4.55;;;3.38;;
21030;SDS011;61072;47.808;7.636;2023-06-14T09:55:36;4.88;;;3.20;;
21030;SDS011;61072;47.808;7.636;2023-06-14T09:58:05;9.40;;;3.33;;
21030;SDS011;61072;47.808;7.636;2023-06-14T10:00:34;5.25;;;3.15;;
21030;SDS011;61072;47.808;7.636;2023-06-14T10:03:05;8.02;;;3.20;;
21030;SDS011;61072;47.808;7.636;2023-06-14T10:05:37;5.53;;;3.42;;
21030;SDS011;61072;47.808;7.636;2023-06-14T10:10:35;4.50;;;2.90;;
21030;SDS011;61072;47.808;7.636;2023-06-14T10:13:04;14.77;;;3.30;;
21030;SDS011;61072;47.808;7.636;2023-06-14T10:21:36;8.57;;;3.95;;
21030;SDS011;61072;47.808;7.636;2023-06-14T10:24:20;6.43;;;3.40;;
21030;SDS011;61072;47.808;7.636;2023-06-14T10:26:57;8.88;;;3.33;;
21030;SDS011;61072;47.808;7.636;2023-06-14T10:29:29;6.38;;;3.35;;
21030;SDS011;61072;47.808;7.636;2023-06-14T10:31:59;3.90;;;2.85;;
21030;SDS011;61072;47.808;7.636;2023-06-14T10:34:27;5.53;;;3.10;;
21030;SDS011;61072;47.808;7.636;2023-06-14T10:37:05;5.05;;;3.65;;
21030;SDS011;61072;47.808;7.636;2023-06-14T10:39:40;5.97;;;3.20;;
21030;SDS011;61072;47.808;7.636;2023-06-14T10:42:08;7.95;;;3.05;;
21030;SDS011;61072;47.808;7.636;2023-06-14T10:44:40;7.40;;;3.05;;
21030;SDS011;61072;47.808;7.636;2023-06-14T10:47:30;6.90;;;3.40;;
21030;SDS011;61072;47.808;7.636;2023-06-14T10:52:28;3.78;;;2.60;;
21030;SDS011;61072;47.808;7.636;2023-06-14T10:57:42;8.88;;;3.25;;
21030;SDS011;61072;47.808;7.636;2023-06-14T11:00:19;11.73;;;3.67;;
21030;SDS011;61072;47.808;7.636;2023-06-14T11:02:58;4.63;;;3.30;;
21030;SDS011;61072;47.808;7.636;2023-06-14T11:05:57;4.95;;;3.65;;
21030;SDS011;61072;47.808;7.636;2023-06-14T11:11:19;4.95;;;3.20;;
21030;SDS011;61072;47.808;7.636;2023-06-14T11:13:49;7.57;;;3.15;;
21030;SDS011;61072;47.808;7.636;2023-06-14T11:16:20;3.85;;;2.83;;
21030;SDS011;61072;47.808;7.636;2023-06-14T11:18:53;5.03;;;3.08;;
21030;SDS011;61072;47.808;7.636;2023-06-14T11:21:20;7.57;;;3.40;;
21030;SDS011;61072;47.808;7.636;2023-06-14T11:23:50;5.85;;;3.30;;
21030;SDS011;61072;47.808;7.636;2023-06-14T11:26:25;8.45;;;3.40;;
21030;SDS011;61072;47.808;7.636;2023-06-14T11:28:56;4.00;;;3.50;;
21030;SDS011;61072;47.808;7.636;2023-06-14T11:31:25;5.72;;;3.33;;
21030;SDS011;61072;47.808;7.636;2023-06-14T11:33:53;8.38;;;3.53;;
21030;SDS011;61072;47.808;7.636;2023-06-14T11:36:21;9.35;;;3.28;;
21030;SDS011;61072;47.808;7.636;2023-06-14T11:38:49;9.50;;;3.40;;
21030;SDS011;61072;47.808;7.636;2023-06-14T11:41:17;4.82;;;3.47;;
21030;SDS011;61072;47.808;7.636;2023-06-14T11:43:43;5.65;;;3.22;;
21030;SDS011;61072;47.808;7.636;2023-06-14T11:46:13;3.75;;;3.00;;
21030;SDS011;61072;47.808;7.636;2023-06-14T11:48:48;7.47;;;3.28;;
21030;SDS011;61072;47.808;7.636;2023-06-14T11:51:14;6.60;;;3.35;;
21030;SDS011;61072;47.808;7.636;2023-06-14T11:53:42;4.60;;;2.90;;
21030;SDS011;61072;47.808;7.636;2023-06-14T11:56:09;5.05;;;3.05;;
21030;SDS011;61072;47.808;7.636;2023-06-14T11:58:36;9.85;;;3.63;;
21030;SDS011;61072;47.808;7.636;2023-06-14T12:01:03;5.93;;;2.97;;
21030;SDS011;61072;47.808;7.636;2023-06-14T12:03:30;5.00;;;2.95;;
21030;SDS011;61072;47.808;7.636;2023-06-14T12:06:04;6.25;;;3.03;;
21030;SDS011;61072;47.808;7.636;2023-06-14T12:08:34;4.70;;;3.22;;
21030;SDS011;61072;47.808;7.636;2023-06-14T12:11:11;3.22;;;2.70;;
21030;SDS011;61072;47.808;7.636;2023-06-14T12:13:40;6.47;;;3.25;;
21030;SDS011;61072;47.808;7.636;2023-06-14T12:16:08;5.45;;;3.30;;
21030;SDS011;61072;47.808;7.636;2023-06-14T12:18:36;11.85;;;3.30;;
21030;SDS011;61072;47.808;7.636;2023-06-14T12:21:04;7.20;;;3.35;;
21030;SDS011;61072;47.808;7.636;2023-06-14T12:23:46;7.55;;;3.40;;
21030;SDS011;61072;47.808;7.636;2023-06-14T12:26:17;10.25;;;3.17;;
21030;SDS011;61072;47.808;7.636;2023-06-14T12:28:45;9.68;;;3.92;;
21030;SDS011;61072;47.808;7.636;2023-06-14T12:31:15;8.20;;;3.65;;
21030;SDS011;61072;47.808;7.636;2023-06-14T12:33:42;6.28;;;3.15;;
21030;SDS011;61072;47.808;7.636;2023-06-14T12:36:12;12.17;;;4.17;;
21030;SDS011;61072;47.808;7.636;2023-06-14T12:38:39;6.07;;;3.20;;
21030;SDS011;61072;47.808;7.636;2023-06-14T12:41:06;8.85;;;3.00;;
21030;SDS011;61072;47.808;7.636;2023-06-14T12:43:34;6.82;;;3.30;;
21030;SDS011;61072;47.808;7.636;2023-06-14T12:46:00;5.65;;;3.13;;
21030;SDS011;61072;47.808;7.636;2023-06-14T12:48:27;5.97;;;3.15;;
21030;SDS011;61072;47.808;7.636;2023-06-14T12:50:56;7.57;;;3.25;;
21030;SDS011;61072;47.808;7.636;2023-06-14T12:53:23;4.28;;;2.92;;
21030;SDS011;61072;47.808;7.636;2023-06-14T12:55:50;10.93;;;3.40;;
21030;SDS011;61072;47.808;7.636;2023-06-14T12:58:17;5.78;;;3.22;;
21030;SDS011;61072;47.808;7.636;2023-06-14T13:00:46;5.00;;;3.08;;
21030;SDS011;61072;47.808;7.636;2023-06-14T13:03:13;6.50;;;3.10;;
21030;SDS011;61072;47.808;7.636;2023-06-14T13:05:40;4.28;;;3.03;;
21030;SDS011;61072;47.808;7.636;2023-06-14T13:08:09;6.10;;;3.10;;
21030;SDS011;61072;47.808;7.636;2023-06-14T13:10:35;9.43;;;3.05;;
21030;SDS011;61072;47.808;7.636;2023-06-14T13:13:02;6.72;;;3.38;;
21030;SDS011;61072;47.808;7.636;2023-06-14T13:15:29;5.38;;;3.40;;
21030;SDS011;61072;47.808;7.636;2023-06-14T13:17:56;4.70;;;3.20;;
21030;SDS011;61072;47.808;7.636;2023-06-14T13:20:23;6.38;;;3.75;;
21030;SDS011;61072;47.808;7.636;2023-06-14T13:22:50;6.50;;;3.47;;
21030;SDS011;61072;47.808;7.636;2023-06-14T13:25:17;7.35;;;3.40;;
21030;SDS011;61072;47.808;7.636;2023-06-14T13:27:43;5.75;;;3.40;;
21030;SDS011;61072;47.808;7.636;2023-06-14T13:30:11;4.15;;;3.10;;
21030;SDS011;61072;47.808;7.636;2023-06-14T13:32:38;9.25;;;3.78;;
21030;SDS011;61072;47.808;7.636;2023-06-14T13:35:05;5.28;;;3.08;;
21030;SDS011;61072;47.808;7.636;2023-06-14T13:37:32;6.57;;;3.38;;
21030;SDS011;61072;47.808;7.636;2023-06-14T13:39:59;5.57;;;3.20;;
21030;SDS011;61072;47.808;7.636;2023-06-14T13:42:25;5.60;;;3.22;;
21030;SDS011;61072;47.808;7.636;2023-06-14T13:44:54;5.43;;;3.25;;
21030;SDS011;61072;47.808;7.636;2023-06-14T13:47:21;4.65;;;2.95;;
21030;SDS011;61072;47.808;7.636;2023-06-14T13:49:47;4.93;;;3.47;;
21030;SDS011;61072;47.808;7.636;2023-06-14T13:52:14;7.35;;;3.10;;
21030;SDS011;61072;47.808;7.636;2023-06-14T13:54:41;4.88;;;3.28;;
21030;SDS011;61072;47.808;7.636;2023-06-14T13:57:10;4.90;;;3.08;;
21030;SDS011;61072;47.808;7.636;2023-06-14T13:59:39;5.93;;;3.45;;
21030;SDS011;61072;47.808;7.636;2023-06-14T14:02:06;8.82;;;3.20;;
21030;SDS011;61072;47.808;7.636;2023-06-14T14:04:34;7.47;;;3.72;;
21030;SDS011;61072;47.808;7.636;2023-06-14T14:07:04;6.95;;;3.47;;
21030;SDS011;61072;47.808;7.636;2023-06-14T14:09:32;6.78;;;3.40;;
21030;SDS011;61072;47.808;7.636;2023-06-14T14:12:00;4.85;;;3.40;;
21030;SDS011;61072;47.808;7.636;2023-06-14T14:14:29;5.35;;;3.00;;
21030;SDS011;61072;47.808;7.636;2023-06-14T14:16:58;7.47;;;3.42;;
21030;SDS011;61072;47.808;7.636;2023-06-14T14:19:24;9.18;;;3.40;;
21030;SDS011;61072;47.808;7.636;2023-06-14T14:21:51;4.85;;;3.20;;
21030;SDS011;61072;47.808;7.636;2023-06-14T14:24:20;7.88;;;3.75;;
21030;SDS011;61072;47.808;7.636;2023-06-14T14:26:46;8.10;;;3.30;;
21030;SDS011;61072;47.808;7.636;2023-06-14T14:29:15;8.90;;;3.50;;
21030;SDS011;61072;47.808;7.636;2023-06-14T14:31:42;7.22;;;2.85;;
21030;SDS011;61072;47.808;7.636;2023-06-14T14:34:09;9.38;;;3.25;;
21030;SDS011;61072;47.808;7.636;2023-06-14T14:36:36;6.40;;;3.28;;
21030;SDS011;61072;47.808;7.636;2023-06-14T14:39:04;5.07;;;3.17;;
21030;SDS011;61072;47.808;7.636;2023-06-14T14:41:30;5.25;;;3.45;;
21030;SDS011;61072;47.808;7.636;2023-06-14T14:43:57;7.85;;;3.47;;
21030;SDS011;61072;47.808;7.636;2023-06-14T14:46:25;7.43;;;3.20;;
21030;SDS011;61072;47.808;7.636;2023-06-14T14:48:52;5.80;;;3.20;;
21030;SDS011;61072;47.808;7.636;2023-06-14T14:51:18;11.75;;;3.35;;
21030;SDS011;61072;47.808;7.636;2023-06-14T14:53:45;6.85;;;3.05;;
21030;SDS011;61072;47.808;7.636;2023-06-14T14:56:12;6.03;;;3.10;;
21030;SDS011;61072;47.808;7.636;2023-06-14T14:58:39;8.05;;;3.30;;
21030;SDS011;61072;47.808;7.636;2023-06-14T15:01:05;7.85;;;3.70;;
21030;SDS011;61072;47.808;7.636;2023-06-14T15:03:33;7.07;;;3.30;;
21030;SDS011;61072;47.808;7.636;2023-06-14T15:06:19;8.88;;;3.58;;
21030;SDS011;61072;47.808;7.636;2023-06-14T15:08:46;5.15;;;3.58;;
21030;SDS011;61072;47.808;7.636;2023-06-14T15:11:13;7.97;;;3.33;;
21030;SDS011;61072;47.808;7.636;2023-06-14T15:13:40;8.15;;;2.92;;
21030;SDS011;61072;47.808;7.636;2023-06-14T15:16:07;5.40;;;3.25;;